Time;durP1;ratioP1;P1;durP2;ratioP2;P2;SDS_P1;SDS_P2;PMS_P1;PMS_P2;Temp;Humidity;BMP_temperature;BMP_pressure;BME280_temperature;BME280_humidity;BME280_pressure;Samples;Min_cycle;Max_cycle;Signal;HPM_P1;HPM_P2
2021/09/28 00:00:59;;;;;;;;;2.25;2.25;;;;;;;;2773730;51;8777;-62
2021/09/28 00:03:25;;;;;;;;;4.00;4.00;;;;;;;;2773600;51;8879;-61
2021/09/28 00:05:51;;;;;;;;;5.00;4.00;;;;;;;;2773754;51;9445;-62
2021/09/28 00:08:17;;;;;;;;;2.75;2.75;;;;;;;;2773665;51;8788;-61
2021/09/28 00:10:42;;;;;;;;;1.40;1.00;;;;;;;;2774269;51;8807;-64
2021/09/28 00:13:08;;;;;;;;;2.50;1.75;;;;;;;;2773502;51;8785;-62
2021/09/28 00:15:34;;;;;;;;;2.00;1.60;;;;;;;;2773546;51;8784;-62
2021/09/28 00:18:00;;;;;;;;;2.25;2.25;;;;;;;;2773454;51;9465;-63
2021/09/28 00:20:25;;;;;;;;;3.00;2.00;;;;;;;;2773432;51;9441;-62
2021/09/28 00:22:53;;;;;;;;;2.75;2.75;;;;;;;;2772979;51;10113;-62
2021/09/28 00:25:20;;;;;;;;;2.00;1.60;;;;;;;;2773584;51;8769;-64
2021/09/28 00:27:46;;;;;;;;;3.00;1.80;;;;;;;;2773559;51;8757;-63
2021/09/28 00:30:11;;;;;;;;;5.00;5.00;;;;;;;;2773474;51;8878;-62
2021/09/28 00:32:37;;;;;;;;;0.75;0.75;;;;;;;;2773539;51;8821;-62
2021/09/28 00:35:03;;;;;;;;;4.00;4.00;;;;;;;;2773410;51;8808;-62
2021/09/28 00:37:29;;;;;;;;;2.60;2.60;;;;;;;;2773189;51;8777;-63
2021/09/28 00:39:54;;;;;;;;;2.50;2.50;;;;;;;;2773460;51;8785;-61
2021/09/28 00:42:20;;;;;;;;;4.25;4.25;;;;;;;;2773215;51;8777;-64
2021/09/28 00:44:45;;;;;;;;;1.00;1.00;;;;;;;;2773457;51;8766;-62
2021/09/28 00:47:12;;;;;;;;;3.00;1.00;;;;;;;;2773384;51;8765;-62
2021/09/28 00:49:42;;;;;;;;;1.60;1.00;;;;;;;;2773879;51;8761;-62
2021/09/28 00:52:09;;;;;;;;;1.00;1.00;;;;;;;;2773377;51;8785;-62
2021/09/28 00:54:37;;;;;;;;;1.00;1.00;;;;;;;;2773594;51;8765;-61
2021/09/28 00:57:04;;;;;;;;;2.40;2.40;;;;;;;;2773448;51;8887;-63
2021/09/28 00:59:30;;;;;;;;;2.00;1.80;;;;;;;;2773403;51;8796;-62
2021/09/28 01:01:55;;;;;;;;;3.00;1.25;;;;;;;;2773319;51;8781;-61
2021/09/28 01:04:21;;;;;;;;;1.25;0.50;;;;;;;;2773419;51;8893;-62
2021/09/28 01:06:47;;;;;;;;;1.40;0.80;;;;;;;;2773490;51;8761;-63
2021/09/28 01:09:13;;;;;;;;;2.50;1.75;;;;;;;;2773345;51;8793;-62
2021/09/28 01:11:39;;;;;;;;;2.25;1.00;;;;;;;;2773427;51;8790;-62
2021/09/28 01:14:05;;;;;;;;;2.00;2.00;;;;;;;;2773248;51;8761;-62
2021/09/28 01:16:30;;;;;;;;;1.80;1.80;;;;;;;;2773303;51;9379;-63
2021/09/28 01:18:56;;;;;;;;;1.00;1.00;;;;;;;;2773475;51;8780;-62
2021/09/28 01:21:22;;;;;;;;;2.25;2.00;;;;;;;;2773273;51;8768;-64
2021/09/28 01:23:48;;;;;;;;;3.00;1.80;;;;;;;;2773470;51;8765;-62
2021/09/28 01:26:23;;;;;;;;;2.00;1.75;;;;;;;;2773249;51;8757;-62
2021/09/28 01:28:49;;;;;;;;;1.60;1.00;;;;;;;;2773611;51;9394;-64
2021/09/28 01:31:14;;;;;;;;;1.00;1.00;;;;;;;;2773413;51;8850;-64
2021/09/28 01:33:40;;;;;;;;;1.00;1.00;;;;;;;;2773233;51;8781;-61
2021/09/28 01:36:06;;;;;;;;;1.00;1.00;;;;;;;;2773163;51;8799;-61
2021/09/28 01:38:31;;;;;;;;;2.75;2.00;;;;;;;;2773206;51;8787;-63
2021/09/28 01:40:57;;;;;;;;;0.75;0.75;;;;;;;;2773308;51;8797;-66
2021/09/28 01:43:23;;;;;;;;;0.25;0.25;;;;;;;;2773339;51;8769;-62
2021/09/28 01:45:53;;;;;;;;;3.25;2.00;;;;;;;;2773218;51;8788;-62
2021/09/28 01:48:19;;;;;;;;;4.00;2.00;;;;;;;;2773140;51;8769;-62
2021/09/28 01:50:44;;;;;;;;;1.75;1.75;;;;;;;;2773340;51;9450;-63
2021/09/28 01:53:10;;;;;;;;;3.00;3.00;;;;;;;;2773511;51;8805;-62
2021/09/28 01:55:35;;;;;;;;;2.50;2.00;;;;;;;;2773077;51;8788;-62
2021/09/28 01:58:01;;;;;;;;;2.00;2.00;;;;;;;;2773146;51;8789;-62
2021/09/28 02:00:27;;;;;;;;;1.50;1.50;;;;;;;;2773590;51;8789;-62
2021/09/28 02:02:53;;;;;;;;;1.00;1.00;;;;;;;;2773468;51;11476;-63
2021/09/28 02:05:20;;;;;;;;;2.00;2.00;;;;;;;;2773284;51;8773;-62
2021/09/28 02:07:45;;;;;;;;;1.00;1.00;;;;;;;;2773242;51;8769;-61
2021/09/28 02:10:11;;;;;;;;;3.00;2.00;;;;;;;;2773120;51;8816;-63
2021/09/28 02:12:37;;;;;;;;;3.50;2.00;;;;;;;;2773059;51;8797;-62
2021/09/28 02:15:03;;;;;;;;;3.40;1.60;;;;;;;;2773199;51;8777;-62
2021/09/28 02:17:28;;;;;;;;;2.50;2.50;;;;;;;;2773198;51;8773;-62
2021/09/28 02:19:54;;;;;;;;;2.00;1.25;;;;;;;;2773335;51;8773;-61
2021/09/28 02:22:19;;;;;;;;;2.50;2.50;;;;;;;;2773154;51;8788;-62
2021/09/28 02:24:45;;;;;;;;;2.00;2.00;;;;;;;;2773158;51;9434;-62
2021/09/28 02:27:10;;;;;;;;;1.75;1.75;;;;;;;;2773426;51;8804;-62
2021/09/28 02:29:36;;;;;;;;;2.25;1.00;;;;;;;;2772876;51;8891;-61
2021/09/28 02:32:02;;;;;;;;;4.50;4.50;;;;;;;;2773288;51;8796;-61
2021/09/28 02:34:27;;;;;;;;;2.00;2.00;;;;;;;;2772975;51;8781;-62
2021/09/28 02:36:53;;;;;;;;;1.00;1.00;;;;;;;;2773111;51;8895;-62
2021/09/28 02:39:19;;;;;;;;;2.50;1.50;;;;;;;;2772868;51;8989;-62
2021/09/28 02:41:45;;;;;;;;;2.00;2.00;;;;;;;;2772982;51;8781;-62
2021/09/28 02:44:10;;;;;;;;;3.40;3.00;;;;;;;;2773047;51;8777;-62
2021/09/28 02:46:36;;;;;;;;;4.25;3.00;;;;;;;;2773318;51;8773;-62
2021/09/28 02:49:02;;;;;;;;;4.50;3.00;;;;;;;;2772974;51;8871;-62
2021/09/28 02:51:28;;;;;;;;;2.20;2.20;;;;;;;;2773031;51;8849;-62
2021/09/28 02:53:54;;;;;;;;;2.00;1.50;;;;;;;;2772921;51;8781;-61
2021/09/28 02:56:20;;;;;;;;;5.00;2.40;;;;;;;;2773158;51;8769;-61
2021/09/28 02:58:46;;;;;;;;;2.60;2.60;;;;;;;;2772999;51;8805;-62
2021/09/28 03:01:11;;;;;;;;;6.25;2.00;;;;;;;;2773844;51;8810;-62
2021/09/28 03:03:37;;;;;;;;;4.00;4.00;;;;;;;;2773840;51;8801;-62
2021/09/28 03:06:02;;;;;;;;;1.25;1.25;;;;;;;;2774209;51;8765;-63
2021/09/28 03:08:28;;;;;;;;;2.00;2.00;;;;;;;;2774020;51;8761;-64
2021/09/28 03:10:54;;;;;;;;;2.50;2.50;;;;;;;;2774025;51;8879;-64
2021/09/28 03:13:19;;;;;;;;;5.00;2.00;;;;;;;;2773846;51;8773;-64
2021/09/28 03:15:45;;;;;;;;;2.50;2.00;;;;;;;;2773742;51;8876;-62
2021/09/28 03:18:10;;;;;;;;;3.25;2.00;;;;;;;;2774292;51;8753;-61
2021/09/28 03:20:36;;;;;;;;;1.25;1.25;;;;;;;;2773716;51;8789;-61
2021/09/28 03:23:02;;;;;;;;;2.00;2.00;;;;;;;;2773850;51;8793;-62
2021/09/28 03:25:27;;;;;;;;;4.00;4.00;;;;;;;;2773738;51;8781;-62
2021/09/28 03:27:53;;;;;;;;;4.00;2.50;;;;;;;;2773693;51;8865;-62
2021/09/28 03:30:18;;;;;;;;;3.25;1.50;;;;;;;;2773626;51;8887;-61
2021/09/28 03:32:44;;;;;;;;;1.00;1.00;;;;;;;;2773633;51;8799;-61
2021/09/28 03:35:10;;;;;;;;;2.75;2.75;;;;;;;;2774000;51;8801;-62
2021/09/28 03:37:36;;;;;;;;;2.50;2.00;;;;;;;;2773880;51;8784;-63
2021/09/28 03:40:03;;;;;;;;;1.00;1.00;;;;;;;;2773771;51;9959;-63
2021/09/28 03:42:29;;;;;;;;;4.20;2.60;;;;;;;;2773736;51;8783;-62
2021/09/28 03:44:54;;;;;;;;;4.50;3.00;;;;;;;;2773622;51;8773;-62
2021/09/28 03:47:20;;;;;;;;;3.00;1.00;;;;;;;;2773592;51;8891;-63
2021/09/28 03:49:45;;;;;;;;;3.50;2.50;;;;;;;;2773573;51;8765;-63
2021/09/28 03:52:11;;;;;;;;;3.75;3.25;;;;;;;;2773783;51;8793;-62
2021/09/28 03:54:37;;;;;;;;;2.00;2.00;;;;;;;;2773679;51;8773;-62
2021/09/28 03:57:02;;;;;;;;;3.00;3.00;;;;;;;;2773654;51;9426;-63
2021/09/28 03:59:28;;;;;;;;;3.00;3.00;;;;;;;;2773582;51;8919;-62
2021/09/28 04:01:53;;;;;;;;;4.25;1.75;;;;;;;;2773443;51;8887;-63
2021/09/28 04:04:19;;;;;;;;;5.25;3.75;;;;;;;;2773928;51;8777;-62
2021/09/28 04:06:44;;;;;;;;;2.75;2.75;;;;;;;;2773792;51;8777;-62
2021/09/28 04:09:10;;;;;;;;;3.00;3.00;;;;;;;;2773621;51;9425;-62
2021/09/28 04:11:36;;;;;;;;;3.75;2.50;;;;;;;;2773458;51;8793;-63
2021/09/28 04:14:01;;;;;;;;;4.75;4.75;;;;;;;;2773755;51;8792;-63
2021/09/28 04:16:28;;;;;;;;;3.50;2.00;;;;;;;;2773479;51;8765;-62
2021/09/28 04:18:54;;;;;;;;;2.40;2.40;;;;;;;;2773616;51;8761;-62
2021/09/28 04:21:20;;;;;;;;;4.00;4.00;;;;;;;;2773469;51;8825;-62
2021/09/28 04:23:45;;;;;;;;;2.75;2.75;;;;;;;;2773678;51;8781;-65
2021/09/28 04:26:11;;;;;;;;;4.00;2.75;;;;;;;;2773750;51;8788;-63
2021/09/28 04:28:37;;;;;;;;;5.00;3.60;;;;;;;;2773341;51;8765;-62
2021/09/28 04:31:03;;;;;;;;;5.00;3.20;;;;;;;;2773620;51;9390;-66
2021/09/28 04:33:29;;;;;;;;;2.50;1.00;;;;;;;;2772930;51;8878;-63
2021/09/28 04:35:54;;;;;;;;;3.25;2.75;;;;;;;;2773253;51;8777;-63
2021/09/28 04:38:20;;;;;;;;;4.00;4.00;;;;;;;;2773417;51;8788;-62
2021/09/28 04:40:46;;;;;;;;;3.25;2.75;;;;;;;;2773701;51;8773;-62
2021/09/28 04:43:11;;;;;;;;;3.75;3.75;;;;;;;;2773164;51;8934;-62
2021/09/28 04:45:37;;;;;;;;;3.25;3.25;;;;;;;;2773612;51;8777;-62
2021/09/28 04:48:03;;;;;;;;;4.25;3.00;;;;;;;;2773378;51;8785;-62
2021/09/28 04:50:28;;;;;;;;;5.00;4.00;;;;;;;;2773249;51;8793;-62
2021/09/28 04:52:54;;;;;;;;;5.00;4.25;;;;;;;;2773496;51;8793;-62
2021/09/28 04:55:19;;;;;;;;;5.25;2.00;;;;;;;;2773425;51;8781;-63
2021/09/28 04:57:45;;;;;;;;;5.00;3.25;;;;;;;;2773511;51;8781;-62
2021/09/28 05:00:11;;;;;;;;;3.50;2.75;;;;;;;;2773379;51;8781;-64
2021/09/28 05:02:37;;;;;;;;;3.25;2.50;;;;;;;;2773806;51;8776;-62
2021/09/28 05:05:03;;;;;;;;;5.20;4.40;;;;;;;;2773200;51;8793;-63
2021/09/28 05:07:29;;;;;;;;;3.80;3.20;;;;;;;;2773486;51;8769;-63
2021/09/28 05:09:54;;;;;;;;;3.00;3.00;;;;;;;;2773136;51;9486;-64
2021/09/28 05:12:20;;;;;;;;;3.50;3.50;;;;;;;;2773340;51;8805;-63
2021/09/28 05:14:46;;;;;;;;;3.50;3.50;;;;;;;;2773240;51;8777;-61
2021/09/28 05:17:11;;;;;;;;;6.00;4.00;;;;;;;;2773300;51;8781;-63
2021/09/28 05:19:37;;;;;;;;;4.75;3.25;;;;;;;;2773123;51;9473;-62
2021/09/28 05:22:02;;;;;;;;;5.50;4.00;;;;;;;;2773411;51;8814;-62
2021/09/28 05:24:28;;;;;;;;;4.00;3.80;;;;;;;;2773301;51;8797;-62
2021/09/28 05:26:54;;;;;;;;;5.25;4.00;;;;;;;;2773511;51;8874;-63
2021/09/28 05:29:19;;;;;;;;;4.50;4.50;;;;;;;;2773129;51;8792;-62
2021/09/28 05:31:45;;;;;;;;;6.00;6.00;;;;;;;;2773261;51;8926;-62
2021/09/28 05:34:11;;;;;;;;;3.00;3.00;;;;;;;;2773246;51;9410;-63
2021/09/28 05:36:36;;;;;;;;;5.25;4.00;;;;;;;;2773310;51;8858;-61
2021/09/28 05:39:02;;;;;;;;;4.00;4.00;;;;;;;;2773161;51;9428;-63
2021/09/28 05:41:28;;;;;;;;;5.50;4.00;;;;;;;;2773527;51;8789;-63
2021/09/28 05:43:53;;;;;;;;;4.00;4.00;;;;;;;;2773220;51;8781;-63
2021/09/28 05:46:19;;;;;;;;;2.00;2.00;;;;;;;;2773451;51;8795;-62
2021/09/28 05:48:45;;;;;;;;;5.00;3.00;;;;;;;;2773040;51;8769;-63
2021/09/28 05:51:15;;;;;;;;;5.25;4.25;;;;;;;;2773212;51;8918;-64
2021/09/28 05:53:41;;;;;;;;;3.00;3.00;;;;;;;;2773163;51;8801;-64
2021/09/28 05:56:06;;;;;;;;;4.00;3.25;;;;;;;;2773475;51;8772;-64
2021/09/28 05:58:32;;;;;;;;;6.25;5.00;;;;;;;;2772822;51;9336;-64
2021/09/28 06:00:57;;;;;;;;;2.50;2.50;;;;;;;;2773310;51;8817;-63
2021/09/28 06:03:23;;;;;;;;;4.00;3.25;;;;;;;;2773182;51;8785;-63
2021/09/28 06:05:49;;;;;;;;;4.00;4.00;;;;;;;;2773099;51;8769;-63
2021/09/28 06:08:14;;;;;;;;;4.50;4.25;;;;;;;;2773169;51;8809;-62
2021/09/28 06:10:42;;;;;;;;;4.00;3.25;;;;;;;;2773075;51;8812;-63
2021/09/28 06:13:07;;;;;;;;;2.40;2.40;;;;;;;;2773301;51;8870;-62
2021/09/28 06:15:33;;;;;;;;;3.50;3.00;;;;;;;;2773209;51;8781;-62
2021/09/28 06:17:58;;;;;;;;;5.50;3.75;;;;;;;;2773192;51;8769;-62
2021/09/28 06:20:24;;;;;;;;;6.25;3.75;;;;;;;;2773177;51;8776;-63
2021/09/28 06:22:50;;;;;;;;;3.25;3.00;;;;;;;;2773023;51;8907;-62
2021/09/28 06:25:15;;;;;;;;;1.50;1.50;;;;;;;;2773053;51;8772;-65
2021/09/28 06:27:41;;;;;;;;;3.00;3.00;;;;;;;;2772967;51;8788;-63
2021/09/28 06:30:07;;;;;;;;;3.00;3.00;;;;;;;;2772877;51;8773;-63
2021/09/28 06:32:33;;;;;;;;;2.60;1.40;;;;;;;;2773173;51;8916;-62
2021/09/28 06:34:59;;;;;;;;;2.75;2.25;;;;;;;;2773294;51;8773;-62
2021/09/28 06:37:24;;;;;;;;;1.50;1.50;;;;;;;;2773176;51;8776;-62
2021/09/28 06:39:50;;;;;;;;;1.75;1.00;;;;;;;;2772857;51;8776;-63
2021/09/28 06:42:15;;;;;;;;;3.00;3.00;;;;;;;;2773136;51;8789;-63
2021/09/28 06:44:41;;;;;;;;;2.75;2.75;;;;;;;;2772831;51;8878;-65
2021/09/28 06:47:06;;;;;;;;;2.25;2.25;;;;;;;;2773062;51;8765;-63
2021/09/28 06:49:32;;;;;;;;;4.00;4.00;;;;;;;;2772926;51;8777;-62
2021/09/28 06:51:58;;;;;;;;;4.25;2.25;;;;;;;;2772778;51;8962;-63
2021/09/28 06:54:23;;;;;;;;;5.00;2.00;;;;;;;;2773066;51;8765;-62
2021/09/28 06:56:49;;;;;;;;;2.25;2.25;;;;;;;;2772421;51;8793;-63
2021/09/28 06:59:14;;;;;;;;;5.75;3.50;;;;;;;;2772917;51;8899;-61
2021/09/28 07:01:40;;;;;;;;;4.75;4.75;;;;;;;;2772878;51;8899;-62
2021/09/28 07:04:06;;;;;;;;;3.50;3.50;;;;;;;;2772914;51;9439;-63
2021/09/28 07:06:32;;;;;;;;;1.25;1.25;;;;;;;;2774901;51;8775;-64
2021/09/28 07:08:58;;;;;;;;;2.60;2.60;;;;;;;;2773598;51;9391;-62
2021/09/28 07:11:24;;;;;;;;;5.00;3.80;;;;;;;;2778934;51;8855;-61
2021/09/28 07:13:49;;;;;;;;;8.00;8.00;;;;;;;;2776264;51;8858;-62
2021/09/28 07:16:15;;;;;;;;;6.00;6.00;;;;;;;;2772878;51;8809;-62
2021/09/28 07:18:41;;;;;;;;;3.60;3.00;;;;;;;;2772839;51;9462;-61
2021/09/28 07:21:06;;;;;;;;;6.00;4.00;;;;;;;;2772255;51;8787;-63
2021/09/28 07:23:32;;;;;;;;;4.75;4.75;;;;;;;;2778121;51;8777;-63
2021/09/28 07:25:58;;;;;;;;;6.00;3.00;;;;;;;;2779101;51;9391;-62
2021/09/28 07:28:24;;;;;;;;;5.00;2.50;;;;;;;;2778653;51;8758;-63
2021/09/28 07:30:50;;;;;;;;;5.00;5.00;;;;;;;;2778945;51;8763;-64
2021/09/28 07:33:16;;;;;;;;;5.00;5.00;;;;;;;;2778701;51;8783;-63
2021/09/28 07:35:44;;;;;;;;;3.60;3.60;;;;;;;;2778874;51;8852;-64
2021/09/28 07:38:13;;;;;;;;;3.40;3.40;;;;;;;;2778833;51;8762;-64
2021/09/28 07:40:40;;;;;;;;;4.00;3.60;;;;;;;;2773094;51;8773;-63
2021/09/28 07:43:06;;;;;;;;;0.20;0.20;;;;;;;;2772692;51;8792;-64
2021/09/28 07:45:32;;;;;;;;;3.75;2.25;;;;;;;;2772135;51;8769;-62
2021/09/28 07:47:57;;;;;;;;;2.75;2.75;;;;;;;;2773139;51;9375;-63
2021/09/28 07:50:23;;;;;;;;;2.00;2.00;;;;;;;;2773949;51;8887;-65
2021/09/28 07:52:48;;;;;;;;;3.00;2.00;;;;;;;;2773744;51;8799;-62
2021/09/28 07:55:14;;;;;;;;;2.00;2.00;;;;;;;;2773663;51;8773;-61
2021/09/28 07:57:40;;;;;;;;;3.75;1.50;;;;;;;;2774629;51;9412;-60
2021/09/28 08:00:06;;;;;;;;;4.33;3.00;;;;;;;;2774186;51;8789;-67
2021/09/28 08:02:34;;;;;;;;;3.00;3.00;;;;;;;;2779703;51;8904;-62
2021/09/28 08:05:01;;;;;;;;;2.50;2.50;;;;;;;;2778223;51;8784;-60
2021/09/28 08:07:26;;;;;;;;;3.75;3.75;;;;;;;;2773707;51;8773;-62
2021/09/28 08:09:52;;;;;;;;;1.25;1.25;;;;;;;;2773907;51;9450;-60
2021/09/28 08:12:17;;;;;;;;;3.00;3.00;;;;;;;;2773506;51;9414;-61
2021/09/28 08:14:43;;;;;;;;;1.00;1.00;;;;;;;;2778160;51;9465;-65
2021/09/28 08:17:08;;;;;;;;;4.33;2.00;;;;;;;;2779576;51;8767;-62
2021/09/28 08:19:39;;;;;;;;;4.67;3.00;;;;;;;;2779953;51;8850;-63
2021/09/28 08:22:05;;;;;;;;;0.00;0.00;;;;;;;;2780008;51;8786;-60
2021/09/28 08:24:35;;;;;;;;;1.00;1.00;;;;;;;;2779969;51;8781;-60
2021/09/28 08:29:46;;;;;;;;;1.75;1.00;;;;;;;;2779654;51;8783;-60
2021/09/28 08:32:12;;;;;;;;;1.00;1.00;;;;;;;;2773743;51;8781;-60
2021/09/28 08:34:37;;;;;;;;;0.00;0.00;;;;;;;;2773725;51;8789;-61
2021/09/28 08:37:04;;;;;;;;;2.00;1.00;;;;;;;;2773444;51;8785;-62
2021/09/28 08:39:30;;;;;;;;;1.00;0.00;;;;;;;;2773498;51;8765;-60
2021/09/28 08:41:57;;;;;;;;;0.00;0.00;;;;;;;;2773970;51;8800;-62
2021/09/28 08:44:23;;;;;;;;;3.20;3.20;;;;;;;;2773568;51;9389;-60
2021/09/28 08:46:49;;;;;;;;;2.00;2.00;;;;;;;;2773630;51;8785;-61
2021/09/28 08:49:19;;;;;;;;;4.00;3.20;;;;;;;;2773442;51;8805;-63
2021/09/28 08:51:48;;;;;;;;;1.20;1.20;;;;;;;;2773558;51;8769;-61
2021/09/28 08:54:14;;;;;;;;;1.00;1.00;;;;;;;;2773148;51;8753;-61
2021/09/28 08:56:39;;;;;;;;;2.60;2.60;;;;;;;;2773418;51;9478;-62
2021/09/28 08:59:07;;;;;;;;;2.50;2.50;;;;;;;;2773528;51;8781;-62
2021/09/28 09:01:34;;;;;;;;;3.00;3.00;;;;;;;;2773529;51;8883;-60
2021/09/28 09:04:13;;;;;;;;;6.80;2.00;;;;;;;;2773353;51;8777;-62
2021/09/28 09:06:39;;;;;;;;;3.00;3.00;;;;;;;;2766933;51;8779;-61
2021/09/28 09:09:04;;;;;;;;;4.00;4.00;;;;;;;;2767568;51;8779;-61
2021/09/28 09:11:34;;;;;;;;;4.75;3.50;;;;;;;;2767454;51;8779;-60
2021/09/28 09:14:10;;;;;;;;;2.20;2.20;;;;;;;;2767579;51;8799;-61
2021/09/28 09:16:35;;;;;;;;;3.00;3.00;;;;;;;;2767503;51;8791;-61
2021/09/28 09:19:18;;;;;;;;;3.00;2.50;;;;;;;;2767692;51;8787;-60
2021/09/28 09:21:48;;;;;;;;;3.40;2.00;;;;;;;;2767265;51;8775;-62
2021/09/28 09:24:33;;;;;;;;;3.40;3.40;;;;;;;;2767641;51;8779;-61
2021/09/28 09:26:58;;;;;;;;;2.60;2.60;;;;;;;;2767556;51;8927;-62
2021/09/28 09:29:24;;;;;;;;;6.75;4.50;;;;;;;;2767346;51;8788;-60
2021/09/28 09:31:53;;;;;;;;;5.50;3.50;;;;;;;;2767418;51;8783;-62
2021/09/28 09:34:21;;;;;;;;;2.60;2.60;;;;;;;;2767341;51;8774;-62
2021/09/28 09:37:05;;;;;;;;;2.40;2.40;;;;;;;;2767254;51;8782;-60
2021/09/28 09:39:43;;;;;;;;;1.20;1.20;;;;;;;;2767541;51;8780;-59
2021/09/28 09:42:10;;;;;;;;;2.00;1.00;;;;;;;;2766671;51;8881;-59
2021/09/28 09:44:36;;;;;;;;;3.00;2.00;;;;;;;;2767414;51;8775;-61
2021/09/28 09:47:02;;;;;;;;;2.00;1.67;;;;;;;;2767067;51;8872;-63
2021/09/28 09:49:31;;;;;;;;;1.00;1.00;;;;;;;;2767254;51;8779;-61
2021/09/28 09:52:08;;;;;;;;;0.75;0.75;;;;;;;;2767352;51;11445;-59
2021/09/28 09:54:43;;;;;;;;;2.25;0.50;;;;;;;;2767208;51;8775;-60
2021/09/28 09:57:10;;;;;;;;;1.50;0.50;;;;;;;;2767076;51;8772;-60
2021/09/28 09:59:36;;;;;;;;;0.00;0.00;;;;;;;;2766934;51;8771;-61
2021/09/28 10:02:02;;;;;;;;;1.25;1.25;;;;;;;;2770974;51;8781;-61
2021/09/28 10:04:28;;;;;;;;;0.25;0.25;;;;;;;;2772982;51;8790;-59
2021/09/28 10:06:55;;;;;;;;;1.00;1.00;;;;;;;;2773232;51;9402;-60
2021/09/28 10:09:28;;;;;;;;;0.75;0.75;;;;;;;;2772314;51;8808;-59
2021/09/28 10:11:55;;;;;;;;;1.00;1.00;;;;;;;;2773003;51;8765;-61
2021/09/28 10:14:31;;;;;;;;;2.20;1.00;;;;;;;;2772982;51;8761;-60
2021/09/28 10:16:59;;;;;;;;;1.80;1.80;;;;;;;;2773234;51;8765;-59
2021/09/28 10:19:27;;;;;;;;;1.80;1.40;;;;;;;;2772930;51;8769;-60
2021/09/28 10:21:53;;;;;;;;;1.40;1.00;;;;;;;;2773251;51;8777;-61
2021/09/28 10:24:22;;;;;;;;;0.40;0.40;;;;;;;;2772916;51;8784;-60
2021/09/28 10:27:08;;;;;;;;;2.60;1.20;;;;;;;;2772853;51;8773;-62
2021/09/28 10:29:47;;;;;;;;;0.20;0.20;;;;;;;;2769828;51;8769;-58
2021/09/28 10:32:25;;;;;;;;;1.80;1.80;;;;;;;;2772883;51;8808;-59
2021/09/28 10:35:06;;;;;;;;;1.80;1.80;;;;;;;;2773159;51;8796;-58
2021/09/28 10:37:43;;;;;;;;;1.40;1.40;;;;;;;;2773080;51;8773;-58
2021/09/28 10:40:29;;;;;;;;;1.20;1.00;;;;;;;;2772803;51;8777;-59
2021/09/28 10:42:59;;;;;;;;;0.20;0.20;;;;;;;;2769946;51;8769;-59
2021/09/28 10:45:28;;;;;;;;;2.20;2.20;;;;;;;;2772377;51;8777;-59
2021/09/28 10:47:54;;;;;;;;;2.20;1.20;;;;;;;;2772817;51;8911;-58
2021/09/28 10:50:22;;;;;;;;;1.40;1.40;;;;;;;;2772939;51;8789;-59
2021/09/28 10:52:48;;;;;;;;;2.60;0.80;;;;;;;;2772798;51;8785;-61
2021/09/28 10:55:13;;;;;;;;;1.80;1.00;;;;;;;;2773185;51;8781;-58
2021/09/28 10:57:59;;;;;;;;;1.25;1.00;;;;;;;;2772854;51;8773;-58
2021/09/28 11:00:26;;;;;;;;;2.40;2.40;;;;;;;;2773066;51;8765;-59
2021/09/28 11:02:55;;;;;;;;;2.20;2.20;;;;;;;;2772495;51;9441;-58
2021/09/28 11:05:34;;;;;;;;;2.00;2.00;;;;;;;;2776006;51;8770;-60
2021/09/28 11:08:01;;;;;;;;;1.00;1.00;;;;;;;;2779140;51;8775;-63
2021/09/28 11:10:27;;;;;;;;;3.60;2.40;;;;;;;;2778980;51;8782;-59
2021/09/28 11:12:52;;;;;;;;;2.60;1.80;;;;;;;;2779001;51;9271;-59
2021/09/28 11:15:22;;;;;;;;;2.00;2.00;;;;;;;;2778150;51;8778;-58
2021/09/28 11:17:48;;;;;;;;;2.00;2.00;;;;;;;;2778748;51;8755;-57
2021/09/28 11:20:24;;;;;;;;;1.60;1.60;;;;;;;;2778873;51;8766;-59
2021/09/28 11:22:54;;;;;;;;;5.40;4.20;;;;;;;;2779906;51;8777;-60
2021/09/28 11:25:20;;;;;;;;;2.00;2.00;;;;;;;;2779662;51;8771;-63
2021/09/28 11:28:01;;;;;;;;;1.00;1.00;;;;;;;;2779788;51;8762;-61
2021/09/28 11:30:27;;;;;;;;;4.00;2.00;;;;;;;;2779630;51;8758;-59
2021/09/28 11:33:00;;;;;;;;;6.00;4.40;;;;;;;;2779891;51;8786;-61
2021/09/28 11:35:25;;;;;;;;;2.40;2.40;;;;;;;;2779821;51;8763;-59
2021/09/28 11:37:55;;;;;;;;;3.25;3.00;;;;;;;;2779655;51;8795;-59
2021/09/28 11:40:20;;;;;;;;;3.00;1.80;;;;;;;;2779555;51;8778;-61
2021/09/28 11:42:46;;;;;;;;;2.25;2.25;;;;;;;;2779767;51;8792;-59
2021/09/28 11:45:11;;;;;;;;;2.50;2.50;;;;;;;;2779626;51;8795;-59
2021/09/28 11:47:40;;;;;;;;;2.25;2.25;;;;;;;;2779824;51;8863;-58
2021/09/28 11:50:06;;;;;;;;;2.60;2.60;;;;;;;;2779447;51;8864;-58
2021/09/28 11:52:35;;;;;;;;;2.60;2.00;;;;;;;;2779970;51;8799;-59
2021/09/28 11:55:02;;;;;;;;;3.00;2.00;;;;;;;;2779868;51;8763;-58
2021/09/28 11:57:28;;;;;;;;;2.00;2.00;;;;;;;;2779702;51;8766;-57
2021/09/28 11:59:54;;;;;;;;;2.40;2.40;;;;;;;;2779914;51;9404;-60
2021/09/28 12:02:21;;;;;;;;;0.75;0.75;;;;;;;;2779847;51;8796;-59
2021/09/28 12:05:34;;;;;;;;;3.00;2.00;;;;;;;;2777738;51;8769;-59
2021/09/28 12:08:00;;;;;;;;;3.00;3.00;;;;;;;;2773813;51;8757;-59
2021/09/28 12:10:33;;;;;;;;;2.60;2.40;;;;;;;;2773612;51;8793;-60
2021/09/28 12:13:12;;;;;;;;;2.40;2.40;;;;;;;;2773574;51;8797;-59
2021/09/28 12:15:56;;;;;;;;;4.80;4.80;;;;;;;;2773629;51;8793;-64
2021/09/28 12:18:21;;;;;;;;;3.00;3.00;;;;;;;;2773930;51;9419;-59
2021/09/28 12:20:47;;;;;;;;;4.75;3.50;;;;;;;;2773491;51;8773;-58
2021/09/28 12:23:13;;;;;;;;;5.25;4.00;;;;;;;;2773723;51;8766;-60
2021/09/28 12:25:38;;;;;;;;;5.50;4.75;;;;;;;;2775413;51;8789;-61
2021/09/28 12:28:33;;;;;;;;;2.75;2.75;;;;;;;;2775526;51;8801;-61
2021/09/28 12:31:02;;;;;;;;;3.00;3.00;;;;;;;;2774705;51;8900;-60
2021/09/28 12:33:28;;;;;;;;;3.20;3.00;;;;;;;;2775185;51;8778;-60
2021/09/28 12:36:01;;;;;;;;;2.00;1.60;;;;;;;;2775161;51;8773;-61
2021/09/28 12:38:27;;;;;;;;;3.40;3.40;;;;;;;;2775345;51;8782;-60
2021/09/28 12:41:02;;;;;;;;;2.25;2.00;;;;;;;;2775138;51;8958;-59
2021/09/28 12:43:28;;;;;;;;;4.00;3.00;;;;;;;;2775398;51;9314;-61
2021/09/28 12:45:55;;;;;;;;;2.00;2.00;;;;;;;;2775595;51;8777;-61
2021/09/28 12:48:24;;;;;;;;;4.40;2.40;;;;;;;;2775472;51;10377;-61
2021/09/28 12:51:00;;;;;;;;;4.00;3.00;;;;;;;;2774878;51;8795;-60
2021/09/28 12:53:27;;;;;;;;;2.20;2.00;;;;;;;;2775340;51;8777;-59
2021/09/28 12:55:53;;;;;;;;;3.20;2.00;;;;;;;;2775625;51;8759;-60
2021/09/28 12:58:18;;;;;;;;;2.00;2.00;;;;;;;;2775343;51;8781;-60
2021/09/28 13:00:44;;;;;;;;;4.00;3.25;;;;;;;;2775358;51;8820;-58
2021/09/28 13:03:16;;;;;;;;;4.00;4.00;;;;;;;;2774916;51;8798;-58
2021/09/28 13:05:46;;;;;;;;;3.40;3.00;;;;;;;;2775273;51;8765;-58
2021/09/28 13:08:11;;;;;;;;;2.40;2.40;;;;;;;;2774887;51;8773;-59
2021/09/28 13:10:37;;;;;;;;;4.75;3.50;;;;;;;;2775367;51;9434;-57
2021/09/28 13:13:03;;;;;;;;;4.00;3.00;;;;;;;;2775203;51;8797;-58
2021/09/28 13:15:28;;;;;;;;;3.50;3.50;;;;;;;;2775299;51;8797;-63
2021/09/28 13:17:54;;;;;;;;;3.25;3.00;;;;;;;;2775600;51;9413;-59
2021/09/28 13:20:22;;;;;;;;;5.00;4.00;;;;;;;;2776107;51;8774;-60
2021/09/28 13:22:48;;;;;;;;;3.40;2.00;;;;;;;;2779873;51;8759;-58
2021/09/28 13:25:13;;;;;;;;;2.25;2.25;;;;;;;;2779233;51;8791;-58
2021/09/28 13:27:39;;;;;;;;;3.00;3.00;;;;;;;;2779745;51;11427;-59
2021/09/28 13:30:08;;;;;;;;;3.50;3.50;;;;;;;;2779186;51;11533;-59
2021/09/28 13:32:34;;;;;;;;;4.40;4.40;;;;;;;;2779350;51;8774;-59
2021/09/28 13:35:00;;;;;;;;;3.00;3.00;;;;;;;;2779223;51;8789;-57
2021/09/28 13:37:28;;;;;;;;;5.50;4.25;;;;;;;;2779648;51;8791;-58
2021/09/28 13:39:54;;;;;;;;;3.60;3.00;;;;;;;;2779317;51;8833;-58
2021/09/28 13:42:20;;;;;;;;;4.50;3.25;;;;;;;;2779068;51;8902;-57
2021/09/28 13:44:46;;;;;;;;;3.80;3.00;;;;;;;;2779094;51;8771;-58
2021/09/28 13:47:11;;;;;;;;;3.25;3.25;;;;;;;;2779541;51;8750;-59
2021/09/28 13:49:37;;;;;;;;;2.50;2.50;;;;;;;;2779153;51;8778;-59
2021/09/28 13:52:05;;;;;;;;;4.00;3.00;;;;;;;;2779329;51;8783;-58
2021/09/28 13:54:31;;;;;;;;;3.00;2.60;;;;;;;;2779107;51;8758;-57
2021/09/28 13:56:57;;;;;;;;;4.00;3.00;;;;;;;;2779182;51;8781;-58
2021/09/28 13:59:22;;;;;;;;;2.00;1.75;;;;;;;;2779223;51;8782;-57
2021/09/28 14:01:48;;;;;;;;;3.50;3.25;;;;;;;;2779038;51;8782;-57
2021/09/28 14:04:14;;;;;;;;;4.00;4.00;;;;;;;;2778792;51;8770;-57
2021/09/28 14:06:39;;;;;;;;;4.75;4.75;;;;;;;;2773010;51;8768;-57
2021/09/28 14:09:05;;;;;;;;;3.50;3.50;;;;;;;;2772906;51;8777;-57
2021/09/28 14:11:30;;;;;;;;;5.00;3.75;;;;;;;;2773098;51;8768;-60
2021/09/28 14:13:56;;;;;;;;;3.00;2.25;;;;;;;;2772933;51;8788;-56
2021/09/28 14:16:22;;;;;;;;;5.00;4.25;;;;;;;;2773206;51;8785;-57
2021/09/28 14:18:49;;;;;;;;;5.00;4.00;;;;;;;;2772714;51;8781;-57
2021/09/28 14:21:15;;;;;;;;;5.60;5.00;;;;;;;;2772777;51;8749;-58
2021/09/28 14:23:40;;;;;;;;;6.75;6.50;;;;;;;;2773189;51;8765;-59
2021/09/28 14:26:06;;;;;;;;;7.25;7.00;;;;;;;;2773181;51;11469;-58
2021/09/28 14:28:32;;;;;;;;;6.80;6.80;;;;;;;;2773265;51;8879;-57
2021/09/28 14:30:57;;;;;;;;;7.25;5.00;;;;;;;;2773185;51;8793;-61
2021/09/28 14:33:24;;;;;;;;;7.25;7.00;;;;;;;;2773019;51;8785;-60
2021/09/28 14:35:50;;;;;;;;;7.00;7.00;;;;;;;;2773171;51;8783;-61
2021/09/28 14:38:15;;;;;;;;;5.50;5.50;;;;;;;;2772504;51;8793;-59
2021/09/28 14:40:41;;;;;;;;;11.00;7.00;;;;;;;;2773127;51;11461;-61
2021/09/28 14:43:06;;;;;;;;;8.75;8.75;;;;;;;;2772989;51;8866;-59
2021/09/28 14:45:32;;;;;;;;;9.75;8.00;;;;;;;;2772924;51;8789;-59
2021/09/28 14:47:58;;;;;;;;;8.50;8.00;;;;;;;;2772835;51;8773;-59
2021/09/28 14:50:24;;;;;;;;;7.25;7.00;;;;;;;;2773042;51;8773;-58
2021/09/28 14:52:49;;;;;;;;;8.75;7.50;;;;;;;;2772849;51;9420;-58
2021/09/28 14:55:15;;;;;;;;;10.75;7.75;;;;;;;;2773009;51;8800;-58
2021/09/28 14:57:41;;;;;;;;;11.50;8.25;;;;;;;;2774019;51;8784;-59